Time;durP1;ratioP1;P1;durP2;ratioP2;P2;SDS_P1;SDS_P2;PMS_P1;PMS_P2;Temp;Humidity;BMP_temperature;BMP_pressure;BME280_temperature;BME280_humidity;BME280_pressure;Samples;Min_cycle;Max_cycle;Signal;HPM_P1;HPM_P2
2021/09/02 00:00:11;;;;;;;0.40;0.20;;;7.50;1.40;;;8.95;100.00;96252.09;646643;212;31490;-70
2021/09/02 00:02:53;;;;;;;0.40;0.20;;;7.40;1.40;;;8.92;100.00;96251.59;621000;226;32560;-70
2021/09/02 00:05:34;;;;;;;0.40;0.20;;;7.30;1.40;;;8.90;100.00;96249.09;645357;212;31500;-72
2021/09/02 00:08:16;;;;;;;0.40;0.20;;;7.20;1.40;;;8.85;100.00;96244.90;645413;212;31505;-72
2021/09/02 00:10:58;;;;;;;0.40;0.20;;;7.20;1.40;;;8.83;100.00;96239.11;647236;212;31492;-73
2021/09/02 00:13:39;;;;;;;0.40;0.20;;;7.10;1.40;;;8.76;100.00;96237.89;618037;222;31810;-71
2021/09/02 00:16:21;;;;;;;0.40;0.20;;;7.10;1.40;;;8.75;100.00;96236.43;645741;212;31500;-71
2021/09/02 00:19:03;;;;;;;0.40;0.20;;;7.20;1.40;;;8.74;100.00;96234.27;647707;216;32101;-70
2021/09/02 00:21:45;;;;;;;0.40;0.20;;;7.10;1.40;;;8.69;100.00;96233.98;617735;226;31845;-70
2021/09/02 00:24:30;;;;;;;1.40;0.90;;;7.10;1.40;;;8.67;100.00;96226.63;646988;216;31465;-71
2021/09/02 00:27:11;;;;;;;0.40;0.20;;;7.20;1.40;;;8.63;100.00;96229.55;646046;212;31530;-72
2021/09/02 00:29:53;;;;;;;0.40;0.20;;;7.10;1.40;;;8.65;100.00;96228.04;619249;222;31827;-71
2021/09/02 00:32:40;;;;;;;0.40;0.20;;;7.10;1.40;;;8.63;100.00;96219.34;645213;212;31752;-70
2021/09/02 00:35:51;;;;;;;0.40;0.30;;;7.00;1.40;;;8.70;100.00;96220.78;646714;216;31504;-73
2021/09/02 00:38:32;;;;;;;0.40;0.20;;;7.00;1.40;;;8.65;100.00;96222.84;644447;216;32059;-72
2021/09/02 00:41:15;;;;;;;0.40;0.20;;;7.00;1.40;;;8.60;100.00;96218.05;635387;221;31936;-71
2021/09/02 00:43:59;;;;;;;0.40;0.20;;;7.00;1.40;;;8.56;100.00;96212.75;646364;216;31498;-70
2021/09/02 00:46:41;;;;;;;0.40;0.20;;;6.90;1.40;;;8.53;100.00;96210.52;646541;212;31558;-70
2021/09/02 00:49:23;;;;;;;0.40;0.20;;;6.90;1.40;;;8.53;100.00;96208.68;646161;212;31494;-71
2021/09/02 00:52:05;;;;;;;0.40;0.20;;;7.10;1.40;;;8.80;100.00;96215.00;647153;212;31498;-70
2021/09/02 00:54:49;;;;;;;0.40;0.20;;;7.60;1.40;;;8.78;100.00;96215.55;646163;216;31507;-70
2021/09/02 00:57:31;;;;;;;0.40;0.20;;;7.50;1.40;;;8.75;100.00;96211.02;646165;216;31606;-71
2021/09/02 01:00:14;;;;;;;0.40;0.20;;;7.50;1.40;;;8.71;100.00;96214.30;647101;216;31499;-72
2021/09/02 01:02:56;;;;;;;0.60;0.40;;;7.30;1.40;;;8.64;100.00;96205.98;645722;212;31498;-70
2021/09/02 01:05:37;;;;;;;0.40;0.20;;;7.20;1.40;;;8.59;100.00;96205.13;646300;212;31497;-70
2021/09/02 01:08:19;;;;;;;0.40;0.20;;;7.10;1.40;;;8.55;100.00;96208.70;645903;212;31597;-73
2021/09/02 01:11:04;;;;;;;0.40;0.20;;;7.00;1.40;;;8.44;100.00;96208.96;647216;216;31501;-71
2021/09/02 01:13:45;;;;;;;0.40;0.20;;;6.90;1.40;;;8.42;100.00;96207.94;619888;222;31826;-71
2021/09/02 01:16:30;;;;;;;0.40;0.20;;;6.80;1.40;;;8.45;100.00;96206.96;646520;216;32107;-70
2021/09/02 01:19:12;;;;;;;0.40;0.20;;;6.90;1.40;;;8.41;100.00;96205.72;646011;216;31472;-72
2021/09/02 01:21:54;;;;;;;0.40;0.20;;;6.80;1.40;;;8.34;100.00;96207.32;646886;216;31505;-70
2021/09/02 01:24:35;;;;;;;0.40;0.20;;;6.70;1.40;;;8.33;100.00;96203.34;644645;216;31505;-71
2021/09/02 01:27:18;;;;;;;0.40;0.20;;;6.70;1.40;;;8.23;100.00;96205.57;646418;212;31568;-71
2021/09/02 01:30:00;;;;;;;0.40;0.20;;;6.70;1.40;;;8.18;100.00;96205.95;646252;216;31851;-70
2021/09/02 01:35:51;;;;;;;0.40;0.20;;;6.60;1.40;;;8.11;100.00;96198.36;647420;216;42199;-70
2021/09/02 01:38:33;;;;;;;0.40;0.20;;;6.50;1.40;;;8.07;100.00;96196.09;645980;216;32233;-71
2021/09/02 01:41:14;;;;;;;0.40;0.20;;;6.40;1.40;;;8.03;100.00;96194.05;638802;216;31639;-70
2021/09/02 01:43:56;;;;;;;0.40;0.20;;;6.30;1.40;;;-143.44;100.00;122422.95;647065;216;31506;-71
2021/09/02 01:46:37;;;;;;;0.40;0.20;;;6.30;1.40;;;;;;643227;216;31650;-70
2021/09/02 01:49:18;;;;;;;0.40;0.20;;;6.30;1.40;;;;;;646041;216;42448;-71
2021/09/02 01:54:34;;;;;;;0.40;0.20;;;6.20;1.40;;;;;;645276;216;32306;-73
2021/09/02 01:57:15;;;;;;;0.40;0.20;;;6.20;1.40;;;;;;646631;216;32187;-70
2021/09/02 01:59:58;;;;;;;0.40;0.20;;;6.10;1.40;;;;;;645870;216;31534;-70
2021/09/02 02:02:39;;;;;;;0.40;0.20;;;6.10;1.40;;;;;;647464;216;42281;-70
2021/09/02 02:05:20;;;;;;;0.40;0.20;;;6.10;1.40;;;;;;646208;212;31429;-71
2021/09/02 02:08:01;;;;;;;0.40;0.20;;;5.90;1.40;;;;;;645508;216;42174;-70
2021/09/02 02:10:45;;;;;;;0.40;0.20;;;5.90;1.40;;;;;;645393;216;31611;-71
2021/09/02 02:13:26;;;;;;;0.40;0.20;;;5.90;1.40;;;;;;646860;216;31474;-70
2021/09/02 02:16:07;;;;;;;0.40;0.20;;;5.90;1.40;;;;;;646062;212;31564;-71
2021/09/02 02:18:48;;;;;;;0.40;0.20;;;5.90;1.40;;;;;;645600;216;31562;-70
2021/09/02 02:21:29;;;;;;;0.40;0.20;;;5.90;1.40;;;;;;645450;216;32166;-70
2021/09/02 02:24:13;;;;;;;0.40;0.20;;;5.90;1.40;;;;;;646566;216;31516;-70
2021/09/02 02:26:55;;;;;;;0.40;0.20;;;5.60;1.40;;;;;;645499;215;31661;-71
2021/09/02 02:29:36;;;;;;;0.40;0.20;;;5.60;1.40;;;;;;646128;212;31652;-70
2021/09/02 02:32:17;;;;;;;0.40;0.20;;;5.60;1.40;;;;;;646060;216;31997;-71
2021/09/02 02:35:51;;;;;;;0.40;0.20;;;5.70;1.40;;;7.16;100.00;96168.30;645195;216;42117;-72
2021/09/02 02:38:32;;;;;;;0.40;0.20;;;5.60;1.40;;;7.16;100.00;96170.94;645994;212;31503;-70
2021/09/02 02:41:14;;;;;;;0.40;0.20;;;5.60;1.40;;;7.10;100.00;96168.65;645905;216;31503;-70
2021/09/02 02:43:59;;;;;;;0.40;0.20;;;5.50;1.40;;;7.06;100.00;96162.57;618748;226;31869;-70
2021/09/02 02:46:40;;;;;;;0.40;0.20;;;5.60;1.40;;;7.06;100.00;96166.02;646874;216;31505;-70
2021/09/02 02:49:22;;;;;;;0.40;0.20;;;5.60;1.40;;;7.05;100.00;96168.34;646669;212;31530;-70
2021/09/02 02:52:06;;;;;;;0.40;0.20;;;5.60;1.40;;;7.13;100.00;96172.00;647031;216;36427;-76
2021/09/02 02:54:54;;;;;;;0.40;0.20;;;5.70;1.40;;;7.25;100.00;96167.72;618832;226;42740;-70
2021/09/02 02:57:39;;;;;;;0.40;0.20;;;5.90;1.40;;;7.23;100.00;96171.11;645365;216;31466;-70
2021/09/02 03:00:20;;;;;;;0.40;0.20;;;5.80;1.40;;;7.16;100.00;96167.97;647672;216;32082;-70
2021/09/02 03:03:02;;;;;;;0.40;0.20;;;5.70;1.40;;;7.20;100.00;96173.59;646194;215;31793;-70
2021/09/02 03:05:44;;;;;;;0.40;0.20;;;5.70;1.40;;;7.19;100.00;96171.86;646216;216;32197;-72
2021/09/02 03:08:25;;;;;;;0.40;0.20;;;5.70;1.40;;;7.21;100.00;96174.89;646190;216;32087;-71
2021/09/02 03:11:07;;;;;;;0.40;0.20;;;5.80;1.40;;;7.15;100.00;96168.98;645966;216;43789;-70
2021/09/02 03:13:49;;;;;;;0.40;0.20;;;5.80;1.40;;;7.15;100.00;96168.08;646928;212;31477;-70
2021/09/02 03:16:31;;;;;;;0.40;0.20;;;5.70;1.40;;;7.15;100.00;96171.84;647279;212;31807;-73
2021/09/02 03:19:15;;;;;;;0.40;0.20;;;5.70;1.40;;;7.07;100.00;96169.29;645578;216;42620;-71
2021/09/02 03:21:57;;;;;;;0.40;0.20;;;5.50;1.40;;;7.05;100.00;96174.32;646082;216;31591;-71
2021/09/02 03:24:39;;;;;;;0.40;0.20;;;5.60;1.40;;;7.00;100.00;96174.14;646841;216;31480;-71
2021/09/02 03:27:20;;;;;;;0.40;0.20;;;5.50;1.40;;;6.96;100.00;96172.94;644912;216;42640;-70
2021/09/02 03:30:02;;;;;;;0.40;0.20;;;5.40;1.40;;;6.93;100.00;96168.72;646168;216;31534;-70
2021/09/02 03:32:47;;;;;;;0.40;0.20;;;5.40;1.40;;;6.86;100.00;96174.70;646091;213;42177;-71
2021/09/02 03:35:51;;;;;;;0.40;0.20;;;5.30;1.40;;;6.81;100.00;96179.69;647267;216;32197;-73
2021/09/02 03:38:32;;;;;;;0.40;0.20;;;5.20;1.40;;;6.76;100.00;96176.65;646538;216;42731;-71
2021/09/02 03:41:14;;;;;;;0.40;0.30;;;5.20;1.40;;;6.77;100.00;96183.45;646577;212;31493;-71
2021/09/02 03:43:59;;;;;;;0.40;0.20;;;5.20;1.40;;;6.67;100.00;96186.77;645905;214;31487;-71
2021/09/02 03:46:41;;;;;;;0.40;0.20;;;5.20;1.40;;;6.62;100.00;96186.30;646427;216;42107;-71
2021/09/02 03:49:25;;;;;;;0.40;0.20;;;5.20;1.40;;;6.58;100.00;96191.89;631402;221;42224;-71
2021/09/02 03:52:08;;;;;;;0.40;0.30;;;5.10;1.40;;;6.55;100.00;96190.74;646948;216;31485;-71
2021/09/02 03:54:49;;;;;;;0.40;0.20;;;5.00;1.40;;;6.50;100.00;96189.13;618167;226;31863;-71
2021/09/02 03:57:31;;;;;;;0.40;0.20;;;5.00;1.40;;;6.48;100.00;96187.00;647413;212;31500;-71
2021/09/02 04:00:13;;;;;;;0.40;0.20;;;4.90;1.40;;;6.47;100.00;96186.89;646845;212;31511;-71
2021/09/02 04:02:55;;;;;;;0.40;0.20;;;4.90;1.40;;;6.42;100.00;96186.27;646032;213;31480;-70
2021/09/02 04:05:36;;;;;;;0.40;0.20;;;4.90;1.40;;;6.44;100.00;96187.14;645480;212;31542;-71
2021/09/02 04:09:02;;;;;;;0.40;0.20;;;4.90;1.40;;;6.49;100.00;96189.87;646973;212;42108;-70
2021/09/02 04:11:44;;;;;;;0.40;0.20;;;5.10;1.40;;;6.59;100.00;96189.03;646124;212;31510;-71
2021/09/02 04:14:25;;;;;;;0.40;0.20;;;5.20;1.40;;;6.54;100.00;96188.42;644792;212;42082;-71
2021/09/02 04:17:07;;;;;;;0.40;0.20;;;5.10;1.40;;;6.42;100.00;96190.15;647001;212;31516;-70
2021/09/02 04:19:52;;;;;;;0.40;0.20;;;5.00;1.40;;;6.39;100.00;96187.92;646078;212;31520;-70
2021/09/02 04:22:33;;;;;;;0.40;0.30;;;4.90;1.40;;;6.33;100.00;96187.94;646634;216;31568;-71
2021/09/02 04:25:15;;;;;;;0.40;0.20;;;4.80;1.40;;;6.31;100.00;96191.45;645840;212;31507;-71
2021/09/02 04:27:57;;;;;;;0.40;0.20;;;4.80;1.40;;;6.30;100.00;96194.41;619906;222;31824;-71
2021/09/02 04:30:38;;;;;;;0.40;0.20;;;4.80;1.40;;;6.31;100.00;96190.75;645517;216;31500;-71
2021/09/02 04:35:52;;;;;;;0.40;0.20;;;4.90;1.40;;;6.30;100.00;96193.81;646081;216;31636;-72
2021/09/02 04:38:33;;;;;;;0.40;0.20;;;4.80;1.40;;;6.32;100.00;96190.70;646286;212;42720;-71
2021/09/02 04:41:15;;;;;;;0.40;0.20;;;4.80;1.40;;;6.34;100.00;96190.84;640824;212;32547;-70
2021/09/02 04:43:57;;;;;;;0.40;0.20;;;4.80;1.40;;;6.34;100.00;96188.75;642161;215;31516;-71
2021/09/02 04:46:38;;;;;;;0.40;0.20;;;4.90;1.40;;;6.38;100.00;96186.62;645525;212;42182;-71
2021/09/02 04:49:20;;;;;;;0.40;0.20;;;4.90;1.40;;;6.39;100.00;96183.77;646237;212;31493;-74
2021/09/02 04:52:02;;;;;;;0.40;0.20;;;4.90;1.40;;;6.45;100.00;96188.55;646655;212;31508;-71
2021/09/02 04:54:43;;;;;;;0.40;0.20;;;5.00;1.40;;;6.50;100.00;96183.95;645511;216;31543;-71
2021/09/02 04:57:25;;;;;;;0.40;0.20;;;4.90;1.40;;;6.49;100.00;96187.01;647053;212;31478;-71
2021/09/02 05:00:07;;;;;;;0.40;0.20;;;5.00;1.40;;;6.50;100.00;96185.30;645229;216;31546;-71
2021/09/02 05:02:49;;;;;;;0.40;0.20;;;5.00;1.40;;;6.53;100.00;96193.20;644881;216;31536;-71
2021/09/02 05:05:31;;;;;;;0.40;0.20;;;5.00;1.40;;;6.74;100.00;96193.78;646111;212;31498;-72
2021/09/02 05:08:16;;;;;;;0.40;0.20;;;5.10;1.40;;;6.77;100.00;96187.76;646747;216;31539;-70
2021/09/02 05:10:57;;;;;;;0.40;0.20;;;5.10;1.40;;;6.69;100.00;96194.64;645213;216;31495;-71
2021/09/02 05:13:39;;;;;;;0.40;0.20;;;5.10;1.40;;;6.77;100.00;96197.03;646971;216;31587;-69
2021/09/02 05:16:21;;;;;;;0.40;0.20;;;5.10;1.40;;;6.75;100.00;96197.02;645117;216;31493;-72
2021/09/02 05:19:02;;;;;;;0.40;0.20;;;5.20;1.40;;;6.77;100.00;96199.56;646196;212;31523;-72
2021/09/02 05:21:44;;;;;;;0.40;0.20;;;5.30;1.40;;;6.91;100.00;96192.22;645287;216;42130;-71
2021/09/02 05:24:26;;;;;;;0.40;0.20;;;5.50;1.40;;;7.00;100.00;96200.02;645530;212;31478;-73
2021/09/02 05:27:08;;;;;;;0.40;0.20;;;5.60;1.40;;;7.20;100.00;96194.56;646101;216;31553;-71
2021/09/02 05:29:49;;;;;;;0.40;0.20;;;5.80;1.40;;;7.40;100.00;96193.41;645249;212;31510;-71
2021/09/02 05:32:31;;;;;;;0.40;0.20;;;5.90;1.40;;;7.53;100.00;96198.06;645791;212;42539;-71
2021/09/02 05:35:51;;;;;;;0.40;0.20;;;6.20;1.40;;;7.71;100.00;96193.16;646677;212;31691;-72
2021/09/02 05:38:32;;;;;;;0.40;0.20;;;6.30;1.40;;;7.79;100.00;96195.11;646084;215;42220;-70
2021/09/02 05:41:14;;;;;;;0.40;0.20;;;6.30;1.40;;;7.94;100.00;96195.80;638686;216;42356;-72
2021/09/02 05:43:56;;;;;;;0.40;0.20;;;6.50;1.40;;;8.08;100.00;96201.23;646841;216;32755;-71
2021/09/02 05:46:40;;;;;;;0.40;0.20;;;6.70;1.40;;;8.19;100.00;96201.95;645732;212;31504;-73
2021/09/02 05:49:22;;;;;;;0.40;0.20;;;6.80;1.40;;;8.35;100.00;96199.86;645697;216;42119;-71
2021/09/02 05:52:04;;;;;;;0.40;0.20;;;7.10;1.40;;;8.48;100.00;96202.42;645950;212;42103;-72
2021/09/02 05:54:48;;;;;;;0.40;0.20;;;7.40;1.40;;;8.66;100.00;96200.20;646894;216;31510;-73
2021/09/02 05:57:27;;;;;;;0.40;0.20;;;7.60;1.40;;;8.80;100.00;96203.81;645899;212;31766;-71
2021/09/02 06:00:10;;;;;;;0.40;0.20;;;7.80;1.40;;;8.98;100.00;96201.19;646485;212;31491;-70
2021/09/02 06:02:58;;;;;;;0.40;0.20;;;7.80;1.40;;;9.13;100.00;96199.86;646084;216;31518;-73
2021/09/02 06:05:46;;;;;;;0.40;0.20;;;7.90;1.40;;;9.33;100.00;96203.38;645668;216;31477;-70
2021/09/02 06:08:30;;;;;;;0.40;0.20;;;8.10;1.40;;;9.46;100.00;96200.77;646294;216;32078;-70
2021/09/02 06:11:12;;;;;;;0.40;0.20;;;8.10;1.40;;;9.60;100.00;96200.94;646323;216;32162;-70
2021/09/02 06:13:54;;;;;;;0.40;0.20;;;8.30;1.40;;;9.77;100.00;96199.77;618801;226;33089;-71
2021/09/02 06:16:35;;;;;;;0.40;0.20;;;8.40;1.40;;;9.88;100.00;96200.91;646329;212;32049;-71
2021/09/02 06:19:20;;;;;;;0.40;0.20;;;8.50;1.40;;;10.10;100.00;96202.19;646646;216;31460;-70
2021/09/02 06:22:02;;;;;;;0.40;0.20;;;8.80;1.40;;;10.25;100.00;96210.58;646817;212;31813;-71
2021/09/02 06:24:44;;;;;;;0.40;0.20;;;8.90;1.40;;;10.48;100.00;96208.95;618904;222;31927;-71
2021/09/02 06:27:25;;;;;;;0.40;0.20;;;9.10;1.40;;;10.66;100.00;96206.74;645895;216;31519;-71
2021/09/02 06:30:07;;;;;;;0.40;0.20;;;9.30;1.40;;;10.80;100.00;96208.47;645882;212;31532;-70
2021/09/02 06:32:52;;;;;;;0.40;0.20;;;9.40;1.40;;;10.98;100.00;96206.95;646461;216;31725;-71
2021/09/02 06:35:51;;;;;;;0.40;0.20;;;9.70;1.40;;;11.18;100.00;96203.12;644599;212;31484;-71
2021/09/02 06:38:33;;;;;;;0.40;0.20;;;9.90;1.40;;;-143.44;100.00;122422.95;646918;216;31510;-70
2021/09/02 06:41:14;;;;;;;0.40;0.20;;;10.20;1.40;;;;;;638709;212;31672;-70
2021/09/02 06:46:29;;;;;;;0.40;0.20;;;10.50;1.40;;;;;;647535;216;31547;-71
2021/09/02 06:49:10;;;;;;;0.40;0.20;;;10.70;1.40;;;;;;646574;216;31560;-72
2021/09/02 06:51:53;;;;;;;0.40;0.20;;;10.80;1.40;;;;;;645353;216;31481;-70
2021/09/02 06:54:32;;;;;;;0.40;0.20;;;11.00;1.40;;;;;;645434;216;31683;-71
2021/09/02 06:57:13;;;;;;;0.40;0.20;;;11.30;1.40;;;;;;645901;216;31501;-71
2021/09/02 07:01:49;;;;;;;0.40;0.20;;;11.40;1.40;;;;;;645383;216;31483;-71
2021/09/02 07:04:30;;;;;;;0.40;0.20;;;11.60;1.40;;;;;;646759;216;31483;-72
2021/09/02 07:07:11;;;;;;;0.40;0.20;;;11.80;1.40;;;;;;644870;216;31615;-71
2021/09/02 07:09:55;;;;;;;0.40;0.20;;;11.80;1.40;;;;;;645660;212;31495;-71
2021/09/02 07:12:36;;;;;;;0.40;0.20;;;11.90;1.40;;;;;;646286;216;32951;-71
2021/09/02 07:15:17;;;;;;;0.40;0.20;;;12.00;1.40;;;;;;647322;216;31859;-70
2021/09/02 07:17:59;;;;;;;0.40;0.20;;;12.20;1.40;;;;;;619043;222;42463;-71
2021/09/02 07:20:40;;;;;;;0.40;0.20;;;12.40;1.40;;;;;;646287;213;42106;-71
2021/09/02 07:23:21;;;;;;;0.40;0.20;;;12.70;1.40;;;;;;644361;216;43452;-72
2021/09/02 07:26:02;;;;;;;0.40;0.20;;;13.20;1.40;;;;;;645811;212;42226;-70
2021/09/02 07:28:43;;;;;;;0.40;0.20;;;13.40;1.40;;;;;;646209;216;31647;-72
2021/09/02 07:31:24;;;;;;;0.40;0.20;;;13.50;1.40;;;;;;646674;216;31611;-72
2021/09/02 07:35:53;;;;;;;0.40;0.20;;;14.10;1.40;;;15.07;100.00;96225.55;646426;212;31505;-71
2021/09/02 07:38:35;;;;;;;0.40;0.20;;;14.10;1.40;;;15.35;100.00;96227.47;646669;216;31461;-71
2021/09/02 07:41:17;;;;;;;0.40;0.20;;;14.20;1.40;;;15.67;100.00;96226.76;638803;216;31672;-70
2021/09/02 07:43:59;;;;;;;0.40;0.20;;;14.70;1.40;;;15.72;100.00;96230.61;646012;212;31822;-72
2021/09/02 07:46:40;;;;;;;0.40;0.20;;;14.80;1.40;;;15.98;100.00;96225.71;618234;222;32348;-71
2021/09/02 07:49:22;;;;;;;0.40;0.20;;;15.00;1.40;;;16.09;100.00;96227.41;646794;216;31960;-71
2021/09/02 07:52:04;;;;;;;0.40;0.20;;;15.20;1.40;;;16.22;99.30;96227.03;647331;212;31588;-71
2021/09/02 07:54:46;;;;;;;0.40;0.20;;;15.30;1.40;;;16.14;96.35;96233.27;645855;216;31486;-71
2021/09/02 07:57:27;;;;;;;0.40;0.20;;;15.20;1.40;;;16.34;97.30;96231.59;645525;216;31491;-70
2021/09/02 08:02:43;;;;;;;0.40;0.20;;;15.40;1.40;;;16.41;91.90;96236.09;646853;216;31476;-70
2021/09/02 08:05:25;;;;;;;0.40;0.20;;;15.50;1.40;;;16.54;92.90;96239.29;647259;212;31488;-71
2021/09/02 08:08:08;;;;;;;0.40;0.20;;;15.60;1.40;;;16.64;91.52;96244.37;646528;212;31467;-71
2021/09/02 08:10:49;;;;;;;0.40;0.20;;;15.70;1.40;;;16.93;90.49;96247.52;645350;212;31583;-70
2021/09/02 08:13:31;;;;;;;0.40;0.20;;;16.00;1.40;;;16.80;87.12;96245.58;646035;216;31620;-70
2021/09/02 08:16:13;;;;;;;0.80;0.40;;;16.00;1.40;;;16.83;86.83;96249.01;646890;216;31571;-71
2021/09/02 08:18:54;;;;;;;0.40;0.20;;;16.00;1.40;;;17.03;88.81;96248.83;645680;216;31947;-71
2021/09/02 08:21:38;;;;;;;0.40;0.20;;;16.20;1.40;;;17.11;88.04;96249.80;646511;216;32819;-71
2021/09/02 08:24:18;;;;;;;0.40;0.20;;;16.30;1.40;;;-143.44;100.00;122422.95;646222;216;32090;-70
2021/09/02 08:26:59;;;;;;;0.40;0.20;;;16.50;1.40;;;;;;647232;216;31622;-71
2021/09/02 08:29:40;;;;;;;0.40;0.20;;;16.80;1.40;;;;;;646133;212;31675;-71
2021/09/02 08:32:21;;;;;;;0.40;0.20;;;17.00;1.40;;;;;;646319;216;31601;-70
2021/09/02 08:35:55;;;;;;;0.40;0.20;;;17.20;1.40;;;18.22;83.77;96246.22;619481;225;31816;-70
2021/09/02 08:38:40;;;;;;;0.40;0.20;;;17.40;1.40;;;18.56;80.63;96246.94;647611;212;31480;-71
2021/09/02 08:41:19;;;;;;;0.40;0.20;;;17.50;1.40;;;18.74;83.16;96241.55;638952;216;31630;-70
2021/09/02 08:44:01;;;;;;;0.40;0.20;;;17.80;1.40;;;18.86;79.23;96241.23;646400;212;31552;-71
2021/09/02 08:46:42;;;;;;;0.40;0.20;;;17.90;1.40;;;18.72;78.74;96239.62;646082;216;31543;-72
2021/09/02 08:49:24;;;;;;;0.40;0.20;;;17.90;1.40;;;19.17;79.82;96235.75;618518;226;31886;-71
2021/09/02 08:52:09;;;;;;;0.40;0.20;;;18.20;1.40;;;19.09;76.30;96237.38;618660;226;32620;-71
2021/09/02 08:54:50;;;;;;;0.40;0.20;;;18.30;1.40;;;19.62;78.15;96234.02;647313;216;31529;-72
2021/09/02 08:57:32;;;;;;;0.40;0.20;;;18.80;1.40;;;20.12;73.61;96235.84;645978;212;31470;-70
2021/09/02 09:00:14;;;;;;;0.40;0.20;;;19.20;1.40;;;20.42;67.60;96235.86;646183;212;31540;-71
2021/09/02 09:03:02;;;;;;;0.40;0.20;;;19.80;1.40;;;22.28;63.19;96225.09;645563;216;31486;-72
2021/09/02 09:05:43;;;;;;;0.40;0.20;;;24.00;1.40;;;22.31;60.12;96237.93;648036;216;35147;-71
2021/09/02 09:08:31;;;;;;;0.40;0.20;;;23.50;1.40;;;21.54;57.91;96237.08;645838;216;31570;-70
2021/09/02 09:11:15;;;;;;;0.40;0.20;;;22.30;1.40;;;22.73;56.76;96236.66;645806;216;31520;-71
2021/09/02 09:14:08;;;;;;;0.40;0.20;;;23.00;1.40;;;22.09;57.39;96230.94;645036;212;31898;-71
2021/09/02 09:16:51;;;;;;;0.40;0.20;;;22.80;1.40;;;22.71;55.59;96234.75;646858;212;31475;-71
2021/09/02 09:19:53;;;;;;;0.40;0.20;;;22.00;1.40;;;22.58;55.62;96232.94;646267;212;31468;-71
2021/09/02 09:22:36;;;;;;;0.40;0.20;;;23.30;1.40;;;23.24;54.36;96228.55;646111;216;31562;-71
2021/09/02 09:25:16;;;;;;;0.40;0.20;;;23.70;1.40;;;-143.44;100.00;122422.95;647418;212;31777;-71
2021/09/02 09:27:57;;;;;;;0.40;0.20;;;24.10;1.40;;;;;;645623;216;31513;-72
2021/09/02 09:30:39;;;;;;;0.40;0.20;;;24.80;1.40;;;;;;647438;216;31512;-71
2021/09/02 09:35:51;;;;;;;0.40;0.20;;;24.80;1.40;;;-143.44;100.00;122422.95;645982;216;31612;-71
2021/09/02 09:38:32;;;;;;;0.40;0.20;;;26.90;1.40;;;;;;647318;216;31485;-72
2021/09/02 09:41:13;;;;;;;0.40;0.20;;;27.10;1.40;;;;;;646713;216;31903;-71
2021/09/02 09:43:54;;;;;;;0.40;0.20;;;27.20;1.40;;;;;;645372;216;31600;-71
2021/09/02 09:46:40;;;;;;;0.40;0.20;;;25.40;1.40;;;;;;646716;215;31492;-71
2021/09/02 09:49:22;;;;;;;0.40;0.20;;;26.50;1.40;;;;;;646723;212;42289;-70
2021/09/02 09:52:03;;;;;;;0.40;0.20;;;26.60;1.40;;;;;;646826;216;42495;-71
2021/09/02 09:54:44;;;;;;;0.40;0.20;;;26.70;1.40;;;;;;647625;216;42290;-71
2021/09/02 09:57:29;;;;;;;0.40;0.20;;;25.90;1.40;;;;;;647030;215;31859;-71
2021/09/02 10:00:11;;;;;;;0.40;0.20;;;23.40;1.40;;;;;;645213;216;32164;-72
2021/09/02 10:02:52;;;;;;;0.40;0.20;;;24.60;1.40;;;;;;646359;216;31480;-71
2021/09/02 10:05:33;;;;;;;0.40;0.20;;;25.20;1.40;;;;;;645809;216;31469;-71
2021/09/02 10:08:15;;;;;;;0.40;0.20;;;23.30;1.40;;;;;;646236;212;31835;-72
2021/09/02 10:10:56;;;;;;;0.40;0.20;;;26.30;1.40;;;;;;646455;216;31948;-71
2021/09/02 10:13:37;;;;;;;0.40;0.20;;;26.30;1.40;;;;;;647344;212;31734;-71
2021/09/02 10:16:18;;;;;;;0.40;0.20;;;25.90;1.40;;;;;;644942;216;42677;-71
2021/09/02 10:18:59;;;;;;;0.40;0.20;;;24.40;1.40;;;;;;645707;216;42689;-72
2021/09/02 10:21:40;;;;;;;0.40;0.20;;;26.10;1.40;;;;;;645463;212;32000;-71
2021/09/02 10:24:38;;;;;;;0.30;0.20;;;26.40;1.40;;;;;;646367;212;31577;-71
2021/09/02 10:27:33;;;;;;;0.40;0.20;;;26.30;1.40;;;;;;646299;216;31912;-71
2021/09/02 10:30:18;;;;;;;0.40;0.20;;;24.80;1.40;;;;;;647882;212;31713;-72
2021/09/02 10:32:59;;;;;;;0.40;0.20;;;24.60;1.40;;;;;;644475;216;31861;-72
2021/09/02 10:35:57;;;;;;;0.40;0.20;;;26.10;1.40;;;-143.44;100.00;122422.95;646526;212;42487;-71
2021/09/02 10:38:39;;;;;;;0.40;0.20;;;24.30;1.40;;;;;;646625;216;42103;-72
2021/09/02 10:41:44;;;;;;;0.40;0.20;;;24.30;1.40;;;;;;646818;216;31486;-72
2021/09/02 10:44:22;;;;;;;0.40;0.20;;;23.70;1.40;;;;;;647415;212;31468;-72
2021/09/02 10:47:03;;;;;;;0.40;0.20;;;23.20;1.40;;;;;;645939;216;31736;-71
2021/09/02 10:49:44;;;;;;;0.40;0.20;;;22.00;1.40;;;;;;645978;216;31502;-72
2021/09/02 10:52:27;;;;;;;0.40;0.20;;;23.00;1.40;;;;;;646135;216;31506;-72
2021/09/02 10:55:27;;;;;;;0.40;0.20;;;23.50;1.40;;;;;;646094;216;42105;-72
2021/09/02 10:58:08;;;;;;;0.40;0.20;;;23.10;1.40;;;;;;648060;212;31847;-71
2021/09/02 11:00:48;;;;;;;0.40;0.20;;;23.10;1.40;;;;;;647211;212;31754;-72
2021/09/02 11:03:30;;;;;;;0.40;0.20;;;23.30;1.40;;;;;;646264;212;31570;-73
2021/09/02 11:06:13;;;;;;;0.40;0.20;;;25.90;1.40;;;;;;646566;216;31512;-71
2021/09/02 11:08:54;;;;;;;0.40;0.20;;;27.80;1.40;;;;;;618995;222;43012;-71
2021/09/02 11:11:35;;;;;;;0.30;0.10;;;25.90;1.40;;;;;;646238;212;43212;-71
2021/09/02 11:14:16;;;;;;;0.40;0.20;;;28.70;1.40;;;;;;646044;216;31507;-71
2021/09/02 11:16:57;;;;;;;0.40;0.20;;;29.40;1.40;;;;;;645729;216;31779;-72
2021/09/02 11:19:41;;;;;;;0.40;0.20;;;30.30;1.40;;;;;;646606;216;31514;-72
2021/09/02 11:22:22;;;;;;;0.40;0.20;;;29.50;1.40;;;;;;646236;212;31680;-72
2021/09/02 11:25:03;;;;;;;0.40;0.20;;;28.80;1.40;;;;;;647322;216;31496;-72
2021/09/02 11:27:44;;;;;;;0.40;0.20;;;28.90;1.40;;;;;;647912;216;31490;-72
2021/09/02 11:30:29;;;;;;;0.40;0.20;;;27.50;1.40;;;;;;618516;225;31875;-71
2021/09/02 11:35:56;;;;;;;0.40;0.20;;;27.50;1.40;;;33.85;32.13;96155.81;647030;216;32088;-72
2021/09/02 11:38:40;;;;;;;0.40;0.20;;;29.10;1.40;;;-143.44;100.00;122422.95;645965;216;31473;-71
2021/09/02 11:41:21;;;;;;;0.40;0.20;;;27.70;1.40;;;;;;638516;212;31775;-72
2021/09/02 11:44:04;;;;;;;0.40;0.20;;;28.20;1.40;;;;;;645936;216;32312;-71
2021/09/02 11:46:45;;;;;;;0.40;0.20;;;25.80;1.40;;;;;;646331;216;32096;-72
2021/09/02 11:49:26;;;;;;;0.40;0.20;;;25.90;1.40;;;;;;646311;216;31507;-71
2021/09/02 11:52:07;;;;;;;0.40;0.20;;;28.30;1.40;;;;;;646310;216;42300;-71
2021/09/02 11:54:48;;;;;;;0.40;0.20;;;24.70;1.40;;;;;;645970;212;31510;-71
2021/09/02 11:57:30;;;;;;;0.40;0.20;;;24.00;1.40;;;;;;647452;212;31492;-71
2021/09/02 12:00:12;;;;;;;0.40;0.20;;;25.30;1.40;;;;;;646694;212;31492;-71
2021/09/02 12:02:54;;;;;;;0.40;0.20;;;27.60;1.40;;;;;;645509;212;32157;-71
2021/09/02 12:05:38;;;;;;;0.40;0.30;;;29.50;1.40;;;;;;646273;216;31497;-72
2021/09/02 12:08:17;;;;;;;0.40;0.20;;;30.00;1.40;;;;;;646911;216;31836;-70
2021/09/02 12:10:59;;;;;;;0.40;0.20;;;29.60;1.40;;;;;;646692;212;31477;-71
2021/09/02 12:13:40;;;;;;;0.40;0.30;;;28.50;1.40;;;;;;646725;212;31778;-71
2021/09/02 12:16:22;;;;;;;0.40;0.20;;;29.10;1.40;;;;;;647188;213;32061;-72
2021/09/02 12:19:02;;;;;;;0.40;0.20;;;29.10;1.40;;;;;;646079;212;31637;-72
2021/09/02 12:21:43;;;;;;;0.40;0.20;;;29.20;1.40;;;;;;618696;222;32490;-72
2021/09/02 12:24:24;;;;;;;0.40;0.20;;;29.90;1.40;;;;;;646097;216;32251;-72
2021/09/02 12:27:05;;;;;;;0.40;0.20;;;27.70;1.40;;;;;;646772;216;31808;-72
2021/09/02 12:29:52;;;;;;;0.40;0.20;;;28.60;1.40;;;;;;646773;216;31513;-74
2021/09/02 12:32:35;;;;;;;0.40;0.20;;;29.80;1.40;;;;;;645998;216;31594;-72
2021/09/02 12:35:51;;;;;;;0.40;0.20;;;29.50;1.40;;;30.34;35.36;96144.82;646149;212;31506;-71
2021/09/02 12:38:37;;;;;;;0.40;0.20;;;26.90;1.40;;;33.97;31.72;96136.17;646526;212;31625;-72
2021/09/02 12:41:20;;;;;;;0.40;0.20;;;29.10;1.40;;;35.16;30.68;96137.91;612308;226;32111;-72
2021/09/02 12:44:10;;;;;;;0.40;0.20;;;29.40;1.40;;;34.01;32.55;96136.70;641955;214;31580;-72
2021/09/02 12:49:44;;;;;;;0.40;0.20;;;29.00;1.40;;;33.14;32.06;96133.22;646058;212;31568;-71
2021/09/02 12:52:30;;;;;;;0.40;0.20;;;29.00;1.40;;;33.60;32.96;96129.05;646786;216;31510;-72
2021/09/02 12:55:30;;;;;;;0.40;0.20;;;28.70;1.40;;;33.19;33.97;96124.89;645113;216;31491;-72